Flight Track Log - Related Links

Times and Time Zones

All times are in EDT time to prevent confusion due to time zone crossing. See the SKW5499 flight status page for this flight to view local times or setup timezone preferences in your user account.

Time Position Orientation Groundspeed Altitude Reporting Facility
EDT Latitude Longitude Course Direction KTS MPH feet Rate Location/Type
Fri 11:44:45 AM 37.6667 -122.3167 69° East 194 223 2,500  Level Northern Cal TRACON
Fri 11:45:39 AM 37.7000 -122.2667 50° Northeast 269 310 4,500 2,684 Climbing Northern Cal TRACON
Fri 11:46:00 AM 37.7618 -121.9052 69° East  Level FlightAware Approximate
Fri 11:46:39 AM 37.7500 -122.1833 53° Northeast 273 314 7,600  Level Northern Cal TRACON
Fri 11:47:00 AM 37.8162 -121.7515 67° East  Level FlightAware Approximate
Fri 11:47:39 AM 37.7667 -122.1000 76° East 286 329 10,300  Level Northern Cal TRACON
Fri 11:48:00 AM 37.8749 -121.6003 58° Northeast  Level FlightAware Approximate
Fri 11:48:39 AM 37.8000 -122.0000 67° East 306 352 12,500  Level Northern Cal TRACON
Fri 11:49:00 AM 37.9229 -121.4457 69° East  Level FlightAware Approximate
Fri 11:50:19 AM 37.8528 -121.8108 70° East 339 390 16,100  Level Oakland Center
Fri 11:51:20 AM 37.8839 -121.7014 70° East 354 407 18,200 1,415 Climbing Oakland Center
Fri 11:52:22 AM 37.9186 -121.5786 70° East 369 425 19,000 390 Climbing Oakland Center
Fri 11:53:23 AM 37.9572 -121.4369 71° East 420 483 19,000 1,707 Level Oakland Center
Fri 11:54:25 AM 37.9906 -121.2694 76° East 414 476 22,500 2,585 Climbing Oakland Center
Fri 11:55:26 AM 38.0164 -121.1369 76° East 395 455 24,300 1,707 Climbing Oakland Center
Fri 11:56:28 AM 38.0417 -121.0008 77° East 399 459 26,000 1,463 Climbing Oakland Center
Fri 11:57:29 AM 38.0672 -120.8608 77° East 408 470 27,300 1,366 Climbing Oakland Center
Fri 11:58:31 AM 38.0939 -120.7144 77° East 423 487 28,800 1,268 Climbing Oakland Center
Fri 11:59:32 AM 38.1219 -120.5678 76° East 433 498 29,900 1,122 Climbing Oakland Center
Fri 12:00:34 PM 38.1539 -120.3842 77° East 444 511 31,100 1,073 Climbing Oakland Center
Fri 12:01:35 PM 38.1831 -120.2272 77° East 456 525 32,100 1,073 Climbing Oakland Center
Fri 12:02:37 PM 38.2092 -120.0703 78° East 456 525 33,300 1,171 Climbing Oakland Center
Fri 12:03:38 PM 38.2342 -119.9125 79° East 457 526 34,500 1,171 Climbing Oakland Center
Fri 12:04:40 PM 38.2567 -119.7567 80° East 452 520 35,700 1,073 Climbing Oakland Center
Fri 12:05:41 PM 38.2806 -119.6017 79° East 449 517 36,700 634 Climbing Oakland Center
Fri 12:06:43 PM 38.3044 -119.4439 79° East 453 521 37,000 146 Climbing Oakland Center
Fri 12:07:44 PM 38.3331 -119.2817 77° East 464 534 37,000  Level Oakland Center
Fri 12:08:46 PM 38.3578 -119.0889 81° East 460 529 37,000  Level Oakland Center
Fri 12:09:47 PM 38.3775 -118.9300 81° East 455 524 37,000  Level Oakland Center
Fri 12:10:49 PM 38.4019 -118.7700 79° East 458 527 37,000  Level Oakland Center
Fri 12:11:51 PM 38.4242 -118.6097 80° East 460 529 37,000  Level Oakland Center
Fri 12:12:52 PM 38.4461 -118.4472 80° East 464 534 37,000  Level Oakland Center
Fri 12:13:53 PM 38.4686 -118.2797 80° East 474 545 37,000  Level Oakland Center
Fri 12:14:55 PM 38.4906 -118.1136 80° East 474 545 37,000  Level Oakland Center
Fri 12:15:57 PM 38.5200 -117.9500 77° East 472 543 37,000  Level Oakland Center
Fri 12:16:58 PM 38.5472 -117.7850 78° East 472 543 37,000  Level Oakland Center
Fri 12:18:00 PM 38.5750 -117.6183 78° East 475 547 37,000  Level Oakland Center
Fri 12:19:01 PM 38.6025 -117.4519 78° East 475 547 37,000  Level Oakland Center
Fri 12:20:02 PM 38.6350 -117.2528 78° East 474 545 37,000  Level Oakland Center
Fri 12:21:04 PM 38.6622 -117.0858 78° East 474 545 37,000  Level Oakland Center
Fri 12:22:05 PM 38.6889 -116.9189 78° East 475 547 37,000  Level Oakland Center
Fri 12:23:07 PM 38.7150 -116.7517 79° East 476 548 37,000  Level Oakland Center
Fri 12:24:08 PM 38.7411 -116.5839 79° East 478 550 37,000  Level Oakland Center
Fri 12:25:34 PM 38.7781 -116.3500 78° East 477 549 37,000  Level Salt Lake Center
Fri 12:26:11 PM 38.7922 -116.2494 80° East 478 550 37,000  Level Oakland Center
Fri 12:27:12 PM 38.8178 -116.0844 79° East 474 545 37,000  Level Oakland Center
Fri 12:28:40 PM 38.8525 -115.8522 79° East 473 544 37,000  Level Salt Lake Center
Fri 12:29:42 PM 38.8822 -115.6550 79° East 471 542 37,000  Level Salt Lake Center
Fri 12:31:45 PM 38.9294 -115.3356 79° East 472 543 37,000  Level Salt Lake Center
Fri 12:32:47 PM 38.9531 -115.1708 80° East 472 543 37,000  Level Salt Lake Center
Fri 12:33:49 PM 38.9814 -114.9747 79° East 470 541 37,000  Level Salt Lake Center
Fri 12:34:51 PM 39.0044 -114.8106 80° East 468 539 37,000  Level Salt Lake Center
Fri 12:35:53 PM 39.0283 -114.6456 79° East 468 539 37,000  Level Salt Lake Center
Fri 12:36:55 PM 39.0506 -114.4814 80° East 468 539 37,000  Level Salt Lake Center
Fri 12:37:57 PM 39.0725 -114.3183 80° East 467 537 37,000  Level Salt Lake Center
Fri 12:38:59 PM 39.0947 -114.1531 80° East 467 537 37,000  Level Salt Lake Center
Fri 12:40:01 PM 39.1172 -113.9878 80° East 467 537 37,000  Level Salt Lake Center
Fri 12:41:03 PM 39.1436 -113.7903 80° East 468 539 37,000  Level Salt Lake Center
Fri 12:42:05 PM 39.1647 -113.6256 81° East 468 539 37,000  Level Salt Lake Center
Fri 12:43:07 PM 39.1861 -113.4586 81° East 468 539 37,000  Level Salt Lake Center
Fri 12:44:09 PM 39.2075 -113.2922 81° East 469 540 37,000  Level Salt Lake Center
Fri 12:45:11 PM 39.2283 -113.1244 81° East 470 541 37,000  Level Salt Lake Center
Fri 12:46:13 PM 39.2486 -112.9572 81° East 471 542 37,000  Level Salt Lake Center
Fri 12:47:15 PM 39.2736 -112.7536 81° East 474 545 37,000  Level Salt Lake Center
Fri 12:48:17 PM 39.2922 -112.6011 81° East 474 545 37,000  Level Salt Lake Center
Fri 12:49:19 PM 39.3161 -112.4333 80° East 474 545 37,000  Level Salt Lake Center
Fri 12:50:21 PM 39.3486 -112.2650 76° East 484 557 37,000  Level Salt Lake Center
Fri 12:51:23 PM 39.3864 -112.0650 76° East 483 556 37,000  Level Salt Lake Center
Fri 12:52:25 PM 39.4161 -111.8958 77° East 482 555 37,000  Level Salt Lake Center
Fri 12:53:27 PM 39.4478 -111.7256 76° East 486 559 37,000  Level Salt Lake Center
Fri 12:54:28 PM 39.4786 -111.5586 76° East 486 559 37,000  Level Salt Lake Center
Fri 12:55:30 PM 39.5094 -111.3878 77° East 485 558 37,000  Level Salt Lake Center
Fri 12:56:32 PM 39.5411 -111.2100 77° East 489 563 37,000 -145 Level Salt Lake Center
Fri 12:57:34 PM 39.5747 -111.0183 77° East 486 559 36,700 -629 Descending Salt Lake Center
Fri 12:58:36 PM 39.6033 -110.8556 77° East 486 559 35,700 -823 Descending Salt Lake Center
Fri 12:59:38 PM 39.6353 -110.6658 78° East 484 557 35,000 -339 Descending Salt Lake Center
Fri 01:00:40 PM 39.6633 -110.4994 78° East 486 559 35,000  Level Salt Lake Center
Fri 01:01:42 PM 39.6961 -110.3042 78° East 491 565 35,000  Level Salt Lake Center
Fri 01:02:44 PM 39.7233 -110.1383 78° East 492 566 35,000  Level Salt Lake Center
Fri 01:03:45 PM 39.7556 -109.9472 78° East 487 560 35,000  Level Salt Lake Center
Fri 01:04:48 PM 39.7814 -109.7833 78° East 485 558 35,000  Level Salt Lake Center
Fri 01:05:49 PM 39.8133 -109.5911 78° East 485 558 35,000  Level Salt Lake Center
Fri 01:06:51 PM 39.8397 -109.4256 78° East 487 560 35,000  Level Salt Lake Center
Fri 01:07:53 PM 39.8658 -109.2586 78° East 488 562 35,000 -387 Level Salt Lake Center
Fri 01:08:55 PM 39.8722 -109.0608 88° East 492 566 34,200 -871 Descending Salt Lake Center
Fri 01:09:57 PM 39.8561 -108.8936 97° East 485 558 33,200 -1,016 Descending Salt Lake Center
Fri 01:10:59 PM 39.8364 -108.6947 97° East 486 559 32,100 -1,016 Descending Salt Lake Center
Fri 01:12:01 PM 39.8203 -108.5231 97° East 492 566 31,100 -968 Descending Salt Lake Center
Fri 01:13:03 PM 39.8022 -108.3547 98° East 492 566 30,100 -1,645 Descending Salt Lake Center
Fri 01:14:05 PM 39.7814 -108.1622 98° East 484 557 27,700 -2,226 Descending Salt Lake Center
Fri 01:15:07 PM 39.7650 -108.0078 98° East 459 528 25,500 -2,193 Descending Salt Lake Center
Fri 01:16:30 PM 39.7417 -107.7856 98° East 430 495 22,400 -2,096 Descending Denver Center
Fri 01:17:33 PM 39.7264 -107.6447 98° East 417 480 20,400 -1,920 Descending Denver Center
Fri 01:18:35 PM 39.7081 -107.4906 99° East 390 449 18,400 -1,597 Descending Denver Center
Fri 01:19:37 PM 39.6956 -107.3675 97° East 363 418 17,100 -677 Descending Denver Center
Fri 01:20:39 PM 39.6561 -107.2481 113° Southeast 333 383 17,000 -290 Descending Denver Center
Fri 01:21:41 PM 39.6081 -107.1689 128° Southeast 302 348 16,500 -484 Descending Denver Center
Fri 01:22:43 PM 39.5883 -107.0611 103° East 284 327 16,000 -242 Descending Denver Center
Fri 01:23:45 PM 39.5758 -106.9656 100° East 283 326 16,000 -97 Level Denver Center
Fri 01:24:47 PM 39.4997 -106.9600 177° South 273 314 15,800 -871 Descending Denver Center
Fri 01:25:49 PM 39.4453 -106.9947 206° Southwest 251 289 14,200 -1,355 Descending Denver Center
Fri 01:26:51 PM 39.3914 -106.9603 154° Southeast 203 234 13,000 -1,210 Descending Denver Center
Fri 01:27:53 PM 39.3483 -106.9289 151° Southeast 186 214 11,700 -1,392 Descending Denver Center
Fri 01:28:56 PM 39.3022 -106.9072 160° South 182 209 10,100 -1,440 Descending Denver Center
Fri 01:29:58 PM 39.2539 -106.8839 160° South 176 203 8,700 -1,355 Descending Denver Center

Login

Don't have an account? Register now (free) for customized features, flight alerts, and more!